createdAt,value
2022-09-26T00:01:59.155Z,126.31
2022-09-26T00:07:23.873Z,126.03
2022-09-26T00:12:16.817Z,126.97
2022-09-26T00:17:16.714Z,127.36
2022-09-26T00:22:16.654Z,127.55
2022-09-26T00:27:17.282Z,127.45
2022-09-26T00:32:16.495Z,128.33
2022-09-26T00:37:16.454Z,128.23
2022-09-26T00:42:16.398Z,128.62
2022-09-26T00:47:16.320Z,128.82
2022-09-26T00:52:16.251Z,129.11
2022-09-26T00:57:16.244Z,128.91
2022-09-26T01:02:16.341Z,128.91
2022-09-26T01:07:16.018Z,129.01
2022-09-26T01:12:15.982Z,128.82
2022-09-26T01:17:15.938Z,128.52
2022-09-26T01:22:15.920Z,128.33
2022-09-26T01:27:15.778Z,128.62
2022-09-26T01:32:17.612Z,128.23
2022-09-26T01:37:15.690Z,127.65
2022-09-26T01:42:15.569Z,127.36
2022-09-26T01:47:15.513Z,126.31
2022-09-26T01:52:15.446Z,126.69
2022-09-26T01:57:15.391Z,126.12
2022-09-26T02:02:15.357Z,126.50
2022-09-26T02:07:15.251Z,125.75
2022-09-26T02:12:15.158Z,125.46
2022-09-26T02:17:15.103Z,125.37
2022-09-26T02:22:15.042Z,124.72
2022-09-26T02:27:14.961Z,124.36
2022-09-26T02:32:14.995Z,124.72
2022-09-26T02:37:14.844Z,123.36
2022-09-26T02:42:14.781Z,123.81
2022-09-26T02:47:14.722Z,123.44
2022-09-26T02:52:14.642Z,123.18
2022-09-26T02:57:14.577Z,123.72
2022-09-26T03:02:14.511Z,122.82
2022-09-26T03:07:14.463Z,123.00
2022-09-26T03:12:14.374Z,122.91
2022-09-26T03:17:14.329Z,122.55
2022-09-26T03:22:14.247Z,122.19
2022-09-26T03:27:14.177Z,122.55
2022-09-26T03:32:14.366Z,122.55
2022-09-26T03:37:14.027Z,122.37
2022-09-26T03:42:13.985Z,121.49
2022-09-26T03:47:13.906Z,121.67
2022-09-26T03:52:13.863Z,121.84
2022-09-26T03:57:13.798Z,121.49
2022-09-26T04:02:13.812Z,121.40
2022-09-26T04:07:13.644Z,121.05
2022-09-26T04:12:13.591Z,121.58
2022-09-26T04:17:23.460Z,121.32
2022-09-26T04:22:16.359Z,121.32
2022-09-26T04:27:18.130Z,121.84
2022-09-26T04:32:16.229Z,122.11
2022-09-26T04:37:16.229Z,123.00
2022-09-26T04:42:16.095Z,122.55
2022-09-26T04:47:16.015Z,122.82
2022-09-26T04:52:15.952Z,123.36
2022-09-26T04:57:19.469Z,122.64
2022-09-26T05:02:15.922Z,123.18
2022-09-26T05:07:16.527Z,123.72
2022-09-26T05:12:15.698Z,123.90
2022-09-26T05:17:15.636Z,124.45
2022-09-26T05:22:15.548Z,124.82
2022-09-26T05:27:15.462Z,125.09
2022-09-26T05:32:15.414Z,125.09
2022-09-26T05:37:15.362Z,125.28
2022-09-26T05:42:16.398Z,125.56
2022-09-26T05:47:15.260Z,124.72
2022-09-26T05:52:16.440Z,124.91
2022-09-26T05:57:15.087Z,125.09
2022-09-26T06:02:19.976Z,124.54
2022-09-26T06:07:16.008Z,124.45
2022-09-26T06:12:14.857Z,124.08
2022-09-26T06:17:14.839Z,122.91
2022-09-26T06:22:14.750Z,122.37
2022-09-26T06:27:14.644Z,122.28
2022-09-26T06:32:14.607Z,121.58
2022-09-26T06:37:14.550Z,121.32
2022-09-26T06:42:14.452Z,121.05
2022-09-26T06:47:14.496Z,120.19
2022-09-26T06:52:14.348Z,120.11
2022-09-26T06:57:15.186Z,120.62
2022-09-26T07:02:14.302Z,119.34
2022-09-26T07:07:14.148Z,119.60
2022-09-26T07:12:15.488Z,120.19
2022-09-26T07:17:14.004Z,119.76
2022-09-26T07:22:13.907Z,120.11
2022-09-26T07:27:13.844Z,119.26
2022-09-26T07:32:13.787Z,117.92
2022-09-26T07:37:13.731Z,116.22
2022-09-26T07:42:13.673Z,115.27
2022-09-26T07:47:13.607Z,115.11
2022-09-26T07:52:13.532Z,114.41
2022-09-26T07:57:13.469Z,113.41
2022-09-26T08:02:13.487Z,113.18
2022-09-26T08:07:13.376Z,112.28
2022-09-26T08:12:13.238Z,112.13
2022-09-26T08:17:14.352Z,112.13
2022-09-26T08:22:13.148Z,112.57
2022-09-26T08:27:13.046Z,111.90
2022-09-26T08:32:12.988Z,111.53
2022-09-26T08:37:12.911Z,110.95
2022-09-26T08:42:12.855Z,111.90
2022-09-26T08:47:12.813Z,112.57
2022-09-26T08:52:12.719Z,112.65
2022-09-26T08:57:12.651Z,111.61
2022-09-26T09:02:12.793Z,111.98
2022-09-26T09:07:12.526Z,111.39
2022-09-26T09:12:12.463Z,111.24
2022-09-26T09:17:12.378Z,110.65
2022-09-26T09:22:12.313Z,108.87
2022-09-26T09:32:13.178Z,109.86
2022-09-26T09:37:12.110Z,108.03
2022-09-26T09:42:12.041Z,106.74
2022-09-26T09:47:11.984Z,106.13
2022-09-26T09:52:11.900Z,105.27
2022-09-26T09:57:11.853Z,105.67
2022-09-26T10:02:11.757Z,105.86
2022-09-26T10:07:11.703Z,103.85
2022-09-26T10:12:11.898Z,103.97
2022-09-26T10:17:11.660Z,103.40
2022-09-26T10:22:11.633Z,103.46
2022-09-26T10:27:11.470Z,102.03
2022-09-26T10:32:11.354Z,102.09
2022-09-26T10:37:11.317Z,101.78
2022-09-26T10:42:11.218Z,101.11
2022-09-26T10:47:11.161Z,100.69
2022-09-26T10:52:16.026Z,99.97
2022-09-26T10:57:12.037Z,100.45
2022-09-26T11:02:11.054Z,100.03
2022-09-26T11:07:10.899Z,99.15
2022-09-26T11:12:11.096Z,99.38
2022-09-26T11:17:10.782Z,99.50
2022-09-26T11:22:10.697Z,99.62
2022-09-26T11:27:10.622Z,99.85
2022-09-26T11:32:31.626Z,99.56
2022-09-26T11:37:10.520Z,99.91
2022-09-26T11:42:10.426Z,100.09
2022-09-26T11:47:10.420Z,101.23
2022-09-26T11:52:10.643Z,101.72
2022-09-26T11:57:10.418Z,102.33
2022-09-26T12:02:10.149Z,102.15
2022-09-26T12:07:10.076Z,102.64
2022-09-26T12:12:10.007Z,103.15
2022-09-26T12:17:09.932Z,104.04
2022-09-26T12:22:09.894Z,103.53
2022-09-26T12:27:09.806Z,104.88
2022-09-26T12:32:09.735Z,104.36
2022-09-26T12:37:09.704Z,104.04
2022-09-26T12:42:09.621Z,103.85
2022-09-26T12:47:09.542Z,102.96
2022-09-26T12:52:09.491Z,102.58
2022-09-26T12:57:09.399Z,103.34
2022-09-26T13:02:09.383Z,102.52
2022-09-26T13:07:24.571Z,101.11
2022-09-26T13:12:10.199Z,98.80
2022-09-26T13:17:09.155Z,97.60
2022-09-26T13:22:09.064Z,97.43
2022-09-26T13:27:08.974Z,95.55
2022-09-26T13:32:08.913Z,93.91
2022-09-26T13:37:08.880Z,94.91
2022-09-26T13:42:08.782Z,95.61
2022-09-26T13:47:08.738Z,96.65
2022-09-26T13:52:08.672Z,97.09
2022-09-26T13:57:08.600Z,96.43
2022-09-26T14:02:08.542Z,97.15
2022-09-26T14:07:08.468Z,95.66
2022-09-26T14:12:08.419Z,95.55
2022-09-26T14:17:08.331Z,95.23
2022-09-26T14:22:08.253Z,95.88
2022-09-26T14:27:08.204Z,95.99
2022-09-26T14:32:08.202Z,95.61
2022-09-26T14:37:08.071Z,96.10
2022-09-26T14:42:07.979Z,95.66
2022-09-26T14:47:07.909Z,96.15
2022-09-26T14:52:11.305Z,95.88
2022-09-26T14:57:07.815Z,96.21
2022-09-26T15:02:07.783Z,95.61
2022-09-26T15:07:07.649Z,96.15
2022-09-26T15:12:07.603Z,96.93
2022-09-26T15:17:07.499Z,96.82
2022-09-26T15:22:07.457Z,96.59
2022-09-26T15:27:07.435Z,97.49
2022-09-26T15:32:07.317Z,98.00
2022-09-26T15:37:07.271Z,97.94
2022-09-26T15:42:07.207Z,97.43
2022-09-26T15:47:07.123Z,98.51
2022-09-26T15:52:07.072Z,100.75
2022-09-26T15:57:06.998Z,101.84
2022-09-26T16:02:06.991Z,104.04
2022-09-26T16:07:06.857Z,105.01
2022-09-26T16:12:10.368Z,105.27
2022-09-26T16:17:07.709Z,105.27
2022-09-26T16:22:06.668Z,105.86
2022-09-26T16:27:06.559Z,105.47
2022-09-26T16:32:06.493Z,105.93
2022-09-26T16:37:06.439Z,106.26
2022-09-26T16:42:06.361Z,106.07
2022-09-26T16:47:06.279Z,106.60
2022-09-26T16:52:06.262Z,107.01
2022-09-26T16:57:06.171Z,107.83
2022-09-26T17:02:06.190Z,108.59
2022-09-26T17:07:09.543Z,109.58
2022-09-26T17:12:06.364Z,109.65
2022-09-26T17:17:05.906Z,108.66
2022-09-26T17:22:05.834Z,109.01
2022-09-26T17:27:06.121Z,107.96
2022-09-26T17:32:09.617Z,107.28
2022-09-26T17:37:05.673Z,107.14
2022-09-26T17:42:05.594Z,106.67
2022-09-26T17:47:05.531Z,106.87
2022-09-26T17:52:05.415Z,106.74
2022-09-26T17:57:05.365Z,107.55
2022-09-26T18:02:05.354Z,107.76
2022-09-26T18:07:06.049Z,108.31
2022-09-26T18:12:06.105Z,107.69
2022-09-26T18:17:05.087Z,107.96
2022-09-26T18:22:05.274Z,107.96
2022-09-26T18:27:05.192Z,107.28
2022-09-26T18:32:04.971Z,107.35
2022-09-26T18:37:04.838Z,107.35
2022-09-26T18:42:04.863Z,108.10
2022-09-26T18:47:04.756Z,107.07
2022-09-26T18:52:04.625Z,107.21
2022-09-26T18:57:04.566Z,107.90
2022-09-26T19:02:04.707Z,107.07
2022-09-26T19:07:04.473Z,106.13
2022-09-26T19:12:04.392Z,106.00
2022-09-26T19:17:04.314Z,107.21
2022-09-26T19:22:04.195Z,106.53
2022-09-26T19:27:06.421Z,106.67
2022-09-26T19:32:04.141Z,106.40
2022-09-26T19:37:04.027Z,106.20
2022-09-26T19:42:04.010Z,107.62
2022-09-26T19:47:04.005Z,107.48
2022-09-26T19:52:03.912Z,107.62
2022-09-26T19:57:03.756Z,106.60
2022-09-26T20:02:03.790Z,106.87
2022-09-26T20:07:03.619Z,107.01
2022-09-26T20:12:03.585Z,107.48
2022-09-26T20:17:03.579Z,106.13
2022-09-26T20:22:03.516Z,106.33
2022-09-26T20:27:03.388Z,105.27
2022-09-26T20:32:03.294Z,105.60
2022-09-26T20:37:03.196Z,105.67
2022-09-26T20:42:03.187Z,105.14
2022-09-26T20:47:03.109Z,104.68
2022-09-26T20:52:03.020Z,104.29
2022-09-26T20:57:03.064Z,103.97
2022-09-26T21:02:02.926Z,103.91
2022-09-26T21:07:02.787Z,103.65
2022-09-26T21:12:02.762Z,103.72
2022-09-26T21:17:02.707Z,103.08
2022-09-26T21:22:02.950Z,103.08
2022-09-26T21:27:02.611Z,102.21
2022-09-26T21:32:02.470Z,102.90
2022-09-26T21:37:02.387Z,102.33
2022-09-26T21:42:02.359Z,102.40
2022-09-26T21:47:02.282Z,101.90
2022-09-26T21:52:02.200Z,102.09
2022-09-26T21:57:02.124Z,101.41
2022-09-26T22:02:02.193Z,101.47
2022-09-26T22:07:02.002Z,101.23
2022-09-26T22:12:01.951Z,101.35
2022-09-26T22:17:01.919Z,101.11
2022-09-26T22:22:01.804Z,101.17
2022-09-26T22:27:01.729Z,100.75
2022-09-26T22:32:01.664Z,101.17
2022-09-26T22:37:01.566Z,100.87
2022-09-26T22:42:01.553Z,101.23
2022-09-26T22:47:01.455Z,100.87
2022-09-26T22:52:01.388Z,100.51
2022-09-26T22:57:01.311Z,100.51
2022-09-26T23:02:01.288Z,101.23
2022-09-26T23:07:01.238Z,100.33
2022-09-26T23:12:01.116Z,100.51
2022-09-26T23:17:01.101Z,100.21
2022-09-26T23:22:01.034Z,100.63
2022-09-26T23:27:00.937Z,100.51
2022-09-26T23:32:00.863Z,99.91
2022-09-26T23:37:00.791Z,100.27
2022-09-26T23:42:00.753Z,100.27
2022-09-26T23:47:00.727Z,100.87
2022-09-26T23:52:00.647Z,100.93
2022-09-26T23:57:00.552Z,101.29
